createdAt,value
2022-11-08T00:00:40.973Z,23.30
2022-11-08T00:03:07.794Z,20.40
2022-11-08T00:05:53.313Z,26.52
2022-11-08T00:08:38.720Z,22.95
2022-11-08T00:11:24.285Z,23.88
2022-11-08T00:14:00.408Z,21.13
2022-11-08T00:16:27.948Z,20.60
2022-11-08T00:18:54.682Z,25.40
2022-11-08T00:21:21.459Z,17.38
2022-11-08T00:23:48.228Z,19.20
2022-11-08T00:26:15.007Z,19.38
2022-11-08T00:28:41.702Z,21.70
2022-11-08T00:31:08.460Z,18.88
2022-11-08T00:33:35.200Z,20.73
2022-11-08T00:36:02.507Z,22.73
2022-11-08T00:38:29.171Z,20.88
2022-11-08T00:40:55.859Z,25.33
2022-11-08T00:43:22.590Z,22.88
2022-11-08T00:45:49.274Z,19.80
2022-11-08T00:48:16.198Z,18.90
2022-11-08T00:50:43.175Z,23.58
2022-11-08T00:53:09.855Z,22.95
2022-11-08T00:55:36.539Z,22.95
2022-11-08T00:58:03.419Z,23.17
2022-11-08T01:00:30.071Z,23.55
2022-11-08T01:03:15.363Z,21.88
2022-11-08T01:05:42.210Z,22.60
2022-11-08T01:08:09.369Z,23.45
2022-11-08T01:10:36.690Z,22.38
2022-11-08T01:13:03.816Z,25.48
2022-11-08T01:15:36.057Z,23.35
2022-11-08T01:18:03.914Z,26.33
2022-11-08T01:20:30.647Z,24.35
2022-11-08T01:22:57.298Z,19.65
2022-11-08T01:25:24.253Z,21.25
2022-11-08T01:27:50.925Z,21.83
2022-11-08T01:30:17.752Z,23.67
2022-11-08T01:32:44.762Z,24.33
2022-11-08T01:35:11.520Z,25.85
2022-11-08T01:37:38.276Z,25.20
2022-11-08T01:40:05.539Z,24.92
2022-11-08T01:42:33.505Z,25.33
2022-11-08T01:45:10.212Z,21.80
2022-11-08T01:47:37.054Z,21.08
2022-11-08T01:50:16.371Z,18.90
2022-11-08T01:52:50.783Z,22.73
2022-11-08T01:55:25.810Z,19.35
2022-11-08T01:58:03.482Z,19.88
2022-11-08T02:00:30.602Z,18.60
2022-11-08T02:03:01.909Z,20.13
2022-11-08T02:05:30.600Z,22.13
2022-11-08T02:08:18.062Z,22.35
2022-11-08T02:10:49.486Z,19.35
2022-11-08T02:13:21.992Z,21.40
2022-11-08T02:15:48.659Z,22.30
2022-11-08T02:18:18.091Z,23.48
2022-11-08T02:21:20.737Z,20.00
2022-11-08T02:23:48.349Z,20.88
2022-11-08T02:26:17.549Z,25.13
2022-11-08T02:28:46.413Z,17.95
2022-11-08T02:31:14.726Z,19.85
2022-11-08T02:33:42.604Z,24.40
2022-11-08T02:36:17.194Z,25.42
2022-11-08T02:38:47.956Z,28.17
2022-11-08T02:41:14.583Z,28.90
2022-11-08T02:43:41.356Z,24.30
2022-11-08T02:46:08.122Z,23.98
2022-11-08T02:48:34.800Z,23.92
2022-11-08T02:51:01.741Z,23.80
2022-11-08T02:53:28.387Z,23.67
2022-11-08T02:55:55.116Z,24.52
2022-11-08T02:58:22.218Z,24.02
2022-11-08T03:00:48.890Z,26.98
2022-11-08T03:03:15.986Z,28.73
2022-11-08T03:05:43.631Z,25.60
2022-11-08T03:08:10.410Z,27.17
2022-11-08T03:10:37.077Z,30.35
2022-11-08T03:13:06.001Z,26.38
2022-11-08T03:15:33.432Z,27.55
2022-11-08T03:18:02.297Z,25.05
2022-11-08T03:20:33.092Z,27.88
2022-11-08T03:23:02.419Z,27.98
2022-11-08T03:25:29.520Z,31.42
2022-11-08T03:28:01.053Z,32.75
2022-11-08T03:30:27.760Z,34.20
2022-11-08T03:32:54.540Z,28.10
2022-11-08T03:35:21.208Z,28.17
2022-11-08T03:37:56.804Z,29.80
2022-11-08T03:42:51.134Z,35.63
2022-11-08T03:45:18.074Z,33.67
2022-11-08T03:47:46.330Z,27.58
2022-11-08T03:50:15.309Z,28.17
2022-11-08T03:52:42.791Z,23.58
2022-11-08T03:55:11.425Z,31.30
2022-11-08T03:57:41.696Z,28.40
2022-11-08T04:00:10.365Z,27.35
2022-11-08T04:02:37.346Z,27.08
2022-11-08T04:05:05.703Z,29.08
2022-11-08T04:07:32.450Z,31.70
2022-11-08T04:09:59.216Z,23.85
2022-11-08T04:12:44.471Z,26.13
2022-11-08T04:15:16.543Z,28.60
2022-11-08T04:18:03.708Z,25.98
2022-11-08T04:20:49.361Z,30.48
2022-11-08T04:23:17.023Z,23.55
2022-11-08T04:25:44.802Z,25.67
2022-11-08T04:28:11.616Z,25.25
2022-11-08T04:30:38.385Z,28.55
2022-11-08T04:33:05.829Z,29.02
2022-11-08T04:35:33.129Z,32.00
2022-11-08T04:38:03.720Z,23.40
2022-11-08T04:40:31.705Z,28.20
2022-11-08T04:42:58.624Z,28.90
2022-11-08T04:45:25.264Z,29.35
2022-11-08T04:47:51.898Z,25.65
2022-11-08T04:50:18.834Z,28.33
2022-11-08T04:52:54.402Z,25.23
2022-11-08T04:55:22.429Z,23.27
2022-11-08T04:57:49.850Z,27.80
2022-11-08T05:00:17.556Z,33.55
2022-11-08T05:02:44.582Z,25.65
2022-11-08T05:05:11.326Z,26.33
2022-11-08T05:07:38.017Z,23.48
2022-11-08T05:10:05.179Z,21.05
2022-11-08T05:12:31.897Z,27.17
2022-11-08T05:14:58.551Z,27.63
2022-11-08T05:17:25.441Z,31.98
2022-11-08T05:20:10.740Z,24.02
2022-11-08T05:22:56.158Z,23.03
2022-11-08T05:25:22.802Z,30.55
2022-11-08T05:27:49.507Z,24.25
2022-11-08T05:30:16.295Z,24.77
2022-11-08T05:32:42.966Z,22.75
2022-11-08T05:35:09.667Z,22.60
2022-11-08T05:37:36.398Z,23.27
2022-11-08T05:40:03.138Z,24.00
2022-11-08T05:42:29.871Z,17.05
2022-11-08T05:44:56.568Z,17.90
2022-11-08T05:47:23.219Z,17.77
2022-11-08T05:49:49.886Z,17.77
2022-11-08T05:52:16.549Z,18.08
2022-11-08T05:54:43.250Z,12.25
2022-11-08T05:57:09.930Z,20.70
2022-11-08T05:59:36.632Z,17.58
2022-11-08T06:02:03.373Z,13.02
2022-11-08T06:04:30.277Z,15.23
2022-11-08T06:06:57.238Z,17.27
2022-11-08T06:09:23.920Z,15.80
2022-11-08T06:11:50.551Z,13.38
2022-11-08T06:14:17.275Z,12.30
2022-11-08T06:16:43.931Z,13.52
2022-11-08T06:19:10.621Z,13.20
2022-11-08T06:21:37.349Z,15.48
2022-11-08T06:24:04.342Z,12.63
2022-11-08T06:26:31.115Z,15.60
2022-11-08T06:28:58.061Z,12.55
2022-11-08T06:31:24.802Z,11.95
2022-11-08T06:33:51.701Z,12.13
2022-11-08T06:36:18.859Z,14.57
2022-11-08T06:38:45.503Z,12.77
2022-11-08T06:41:18.968Z,17.58
2022-11-08T06:43:45.689Z,12.35
2022-11-08T06:46:14.308Z,16.08
2022-11-08T06:48:41.009Z,15.65
2022-11-08T06:51:07.729Z,13.25
2022-11-08T06:53:34.377Z,13.13
2022-11-08T06:56:01.983Z,17.02
2022-11-08T06:58:29.395Z,14.73
2022-11-08T07:00:56.165Z,15.80
2022-11-08T07:03:23.030Z,13.52
2022-11-08T07:05:50.023Z,18.17
2022-11-08T07:08:22.326Z,16.10
2022-11-08T07:10:50.594Z,15.48
2022-11-08T07:13:17.640Z,14.07
2022-11-08T07:15:45.199Z,18.60
2022-11-08T07:18:13.900Z,14.88
2022-11-08T07:20:42.007Z,17.70
2022-11-08T07:23:10.410Z,18.83
2022-11-08T07:25:37.730Z,14.90
2022-11-08T07:28:06.692Z,20.15
2022-11-08T07:30:35.148Z,14.05
2022-11-08T07:33:02.093Z,12.65
2022-11-08T07:35:28.858Z,14.13
2022-11-08T07:37:56.105Z,16.33
2022-11-08T07:40:23.140Z,14.48
2022-11-08T07:43:10.508Z,13.43
2022-11-08T07:45:37.030Z,14.63
2022-11-08T07:48:11.969Z,15.25
2022-11-08T07:50:40.286Z,16.25
2022-11-08T07:53:07.275Z,19.17
2022-11-08T07:55:36.977Z,24.33
2022-11-08T07:58:03.788Z,27.23
2022-11-08T08:00:31.074Z,21.60
2022-11-08T08:02:59.495Z,25.58
2022-11-08T08:05:27.660Z,25.55
2022-11-08T08:07:57.968Z,17.48
2022-11-08T08:10:25.706Z,17.90
2022-11-08T08:12:52.552Z,20.42
2022-11-08T08:15:19.245Z,12.57
2022-11-08T08:17:46.041Z,13.07
2022-11-08T08:20:13.549Z,20.30
2022-11-08T08:22:47.771Z,15.07
2022-11-08T08:25:15.591Z,15.32
2022-11-08T08:27:47.849Z,14.75
2022-11-08T08:30:17.335Z,16.65
2022-11-08T08:32:47.875Z,16.30
2022-11-08T08:35:17.425Z,13.52
2022-11-08T08:37:44.154Z,13.40
2022-11-08T08:40:11.351Z,16.63
2022-11-08T08:42:38.087Z,15.50
2022-11-08T08:45:05.289Z,21.10
2022-11-08T08:47:31.965Z,17.75
2022-11-08T08:49:58.741Z,17.60
2022-11-08T08:52:25.493Z,18.27
2022-11-08T08:54:52.207Z,19.55
2022-11-08T08:57:18.943Z,18.58
2022-11-08T09:02:32.264Z,16.65
2022-11-08T09:04:59.471Z,19.15
2022-11-08T09:07:26.180Z,20.13
2022-11-08T09:09:52.835Z,20.52
2022-11-08T09:12:19.686Z,20.23
2022-11-08T09:14:46.345Z,19.92
2022-11-08T09:17:13.083Z,19.27
2022-11-08T09:19:39.834Z,19.90
2022-11-08T09:22:06.704Z,19.73
2022-11-08T09:24:36.172Z,21.85
2022-11-08T09:27:04.037Z,16.90
2022-11-08T09:29:31.838Z,25.27
2022-11-08T09:31:58.655Z,17.20
2022-11-08T09:34:25.517Z,18.17
2022-11-08T09:36:52.735Z,19.15
2022-11-08T09:39:19.658Z,20.58
2022-11-08T09:42:17.106Z,20.65
2022-11-08T09:45:13.018Z,25.50
2022-11-08T09:47:42.051Z,21.33
2022-11-08T09:50:21.148Z,22.13
2022-11-08T09:52:54.746Z,22.73
2022-11-08T09:55:42.175Z,23.60
2022-11-08T09:58:28.198Z,25.02
2022-11-08T10:00:55.096Z,20.85
2022-11-08T10:03:24.881Z,23.75
2022-11-08T10:06:23.132Z,25.52
2022-11-08T10:08:58.685Z,26.17
2022-11-08T10:11:56.457Z,22.40
2022-11-08T10:14:52.395Z,22.98
2022-11-08T10:17:39.660Z,22.88
2022-11-08T10:20:35.248Z,24.02
2022-11-08T10:23:21.677Z,23.03
2022-11-08T10:26:00.829Z,22.30
2022-11-08T10:28:40.770Z,22.88
2022-11-08T10:31:09.990Z,23.90
2022-11-08T10:33:55.347Z,21.55
2022-11-08T10:36:40.379Z,26.73
2022-11-08T10:39:19.973Z,24.45
2022-11-08T10:42:07.962Z,25.08
2022-11-08T10:44:35.544Z,22.95
2022-11-08T10:47:05.790Z,23.73
2022-11-08T10:49:34.269Z,31.48
2022-11-08T10:52:16.465Z,27.63
2022-11-08T10:54:47.899Z,20.73
2022-11-08T10:57:25.757Z,26.40
2022-11-08T10:59:53.256Z,29.17
2022-11-08T11:02:21.876Z,27.30
2022-11-08T11:04:49.941Z,26.10
2022-11-08T11:07:35.711Z,29.02
2022-11-08T11:10:27.206Z,28.70
2022-11-08T11:13:09.944Z,30.25
2022-11-08T11:15:51.743Z,23.67
2022-11-08T11:18:48.985Z,24.00
2022-11-08T11:21:18.817Z,25.77
2022-11-08T11:23:48.487Z,29.25
2022-11-08T11:26:27.879Z,24.13
2022-11-08T11:29:17.280Z,24.00
2022-11-08T11:31:46.958Z,29.50
2022-11-08T11:34:19.332Z,21.55
2022-11-08T11:36:53.430Z,23.27
2022-11-08T11:39:37.134Z,28.95
2022-11-08T11:42:31.165Z,21.15
2022-11-08T11:45:06.348Z,23.38
2022-11-08T11:47:48.052Z,26.05
2022-11-08T11:50:31.641Z,28.30
2022-11-08T11:53:00.695Z,19.17
2022-11-08T11:56:10.033Z,17.80
2022-11-08T11:58:55.247Z,25.08
2022-11-08T12:01:37.026Z,25.40
2022-11-08T12:04:29.274Z,22.48
2022-11-08T12:07:12.010Z,27.70
2022-11-08T12:10:07.289Z,24.55
2022-11-08T12:12:39.836Z,20.05
2022-11-08T12:15:12.481Z,23.70
2022-11-08T12:18:08.314Z,23.30
2022-11-08T12:20:38.066Z,25.05
2022-11-08T12:23:31.384Z,24.83
2022-11-08T12:26:08.660Z,26.55
2022-11-08T12:29:07.009Z,20.20
2022-11-08T12:31:42.641Z,29.23
2022-11-08T12:34:21.284Z,20.20
2022-11-08T12:37:10.997Z,22.75
2022-11-08T12:39:59.524Z,29.52
2022-11-08T12:42:44.820Z,22.73
2022-11-08T12:45:51.410Z,21.25
2022-11-08T12:51:05.950Z,17.73
2022-11-08T12:53:44.799Z,21.80
2022-11-08T12:56:26.804Z,20.20
2022-11-08T12:58:55.590Z,19.17
2022-11-08T13:01:23.383Z,19.08
2022-11-08T13:04:25.543Z,22.25
2022-11-08T13:07:21.359Z,19.65
2022-11-08T13:10:01.765Z,15.90
2022-11-08T13:12:47.076Z,18.55
2022-11-08T13:15:21.472Z,14.98
2022-11-08T13:18:06.499Z,21.55
2022-11-08T13:20:39.279Z,15.55
2022-11-08T13:23:13.535Z,14.70
2022-11-08T13:25:41.883Z,14.43
2022-11-08T13:28:34.952Z,20.98
2022-11-08T13:31:11.778Z,16.52
2022-11-08T13:33:44.596Z,17.15
2022-11-08T13:36:40.337Z,12.90
2022-11-08T13:39:18.926Z,15.57
2022-11-08T13:42:16.180Z,16.77
2022-11-08T13:44:55.683Z,18.67
2022-11-08T13:47:34.528Z,13.85
2022-11-08T13:50:28.913Z,16.65
2022-11-08T13:53:04.418Z,16.15
2022-11-08T13:55:43.375Z,13.23
2022-11-08T13:58:39.989Z,13.88
2022-11-08T14:01:35.954Z,16.38
2022-11-08T14:04:32.966Z,21.98
2022-11-08T14:07:30.688Z,19.02
2022-11-08T14:10:11.673Z,14.80
2022-11-08T14:12:49.669Z,16.77
2022-11-08T14:15:31.256Z,13.88
2022-11-08T14:18:09.195Z,21.13
2022-11-08T14:20:41.773Z,13.35
2022-11-08T14:23:20.969Z,17.88
2022-11-08T14:26:15.524Z,16.77
2022-11-08T14:28:45.165Z,14.32
2022-11-08T14:31:32.884Z,17.45
2022-11-08T14:34:01.080Z,13.45
2022-11-08T14:36:30.128Z,13.07
2022-11-08T14:39:11.914Z,11.32
2022-11-08T14:41:39.255Z,11.15
2022-11-08T14:44:11.781Z,16.10
2022-11-08T14:46:39.988Z,13.57
2022-11-08T14:49:19.189Z,12.82
2022-11-08T14:51:46.904Z,14.63
2022-11-08T14:54:27.088Z,13.73
2022-11-08T14:56:55.521Z,12.60
2022-11-08T14:59:24.750Z,15.80
2022-11-08T15:01:51.617Z,15.55
2022-11-08T15:04:21.657Z,11.20
2022-11-08T15:06:54.834Z,15.85
2022-11-08T15:09:29.530Z,21.10
2022-11-08T15:12:00.414Z,14.90
2022-11-08T15:14:31.771Z,12.30
2022-11-08T15:17:02.792Z,13.88
2022-11-08T15:19:37.955Z,14.93
2022-11-08T15:22:33.891Z,13.82
2022-11-08T15:25:28.270Z,10.88
2022-11-08T15:28:13.751Z,12.45
2022-11-08T15:30:44.981Z,13.35
2022-11-08T15:33:33.570Z,12.30
2022-11-08T15:36:01.564Z,11.80
2022-11-08T15:38:30.979Z,11.77
2022-11-08T15:41:03.677Z,12.18
2022-11-08T15:43:33.263Z,12.18
2022-11-08T15:46:01.718Z,16.48
2022-11-08T15:48:28.827Z,12.82
2022-11-08T15:50:56.888Z,15.32
2022-11-08T15:53:25.060Z,14.23
2022-11-08T15:56:04.613Z,16.17
2022-11-08T15:58:36.719Z,14.13
2022-11-08T16:01:04.799Z,10.82
2022-11-08T16:03:33.612Z,11.05
2022-11-08T16:06:00.401Z,10.68
2022-11-08T16:08:27.485Z,12.65
2022-11-08T16:10:59.427Z,13.07
2022-11-08T16:13:35.453Z,11.85
2022-11-08T16:16:06.963Z,13.85
2022-11-08T16:18:34.353Z,16.08
2022-11-08T16:21:01.075Z,13.20
2022-11-08T16:23:28.489Z,14.50
2022-11-08T16:25:57.484Z,15.52
2022-11-08T16:28:40.430Z,18.13
2022-11-08T16:31:10.834Z,14.38
2022-11-08T16:33:37.534Z,15.23
2022-11-08T16:36:19.008Z,14.75
2022-11-08T16:38:56.545Z,14.25
2022-11-08T16:41:24.637Z,15.77
2022-11-08T16:43:51.749Z,18.38
2022-11-08T16:46:22.793Z,17.15
2022-11-08T16:48:56.923Z,15.80
2022-11-08T16:51:25.387Z,14.30
2022-11-08T16:53:52.678Z,13.20
2022-11-08T16:56:19.955Z,16.10
2022-11-08T16:58:47.515Z,15.43
2022-11-08T17:01:18.658Z,15.23
2022-11-08T17:03:45.573Z,13.50
2022-11-08T17:06:18.374Z,15.40
2022-11-08T17:08:48.311Z,11.00
2022-11-08T17:11:21.044Z,10.27
2022-11-08T17:13:48.211Z,13.65
2022-11-08T17:16:15.926Z,14.52
2022-11-08T17:18:42.598Z,9.15
2022-11-08T17:21:38.311Z,12.07
2022-11-08T17:23:58.469Z,14.88
2022-11-08T17:26:25.244Z,10.15
2022-11-08T17:28:55.308Z,12.98
2022-11-08T17:31:22.038Z,10.93
2022-11-08T17:33:48.763Z,15.85
2022-11-08T17:36:15.468Z,11.93
2022-11-08T17:38:42.363Z,10.77
2022-11-08T17:41:14.151Z,15.20
2022-11-08T17:43:42.079Z,15.15
2022-11-08T17:46:08.978Z,11.00
2022-11-08T17:48:35.907Z,10.48
2022-11-08T17:51:02.755Z,8.80
2022-11-08T17:53:29.829Z,11.32
2022-11-08T17:56:00.176Z,8.93
2022-11-08T17:58:28.025Z,12.13
2022-11-08T18:00:56.922Z,13.85
2022-11-08T18:03:24.641Z,10.73
2022-11-08T18:06:06.051Z,10.27
2022-11-08T18:08:34.383Z,10.80
2022-11-08T18:11:02.142Z,10.70
2022-11-08T18:13:29.655Z,11.30
2022-11-08T18:16:05.242Z,12.10
2022-11-08T18:20:58.508Z,12.75
2022-11-08T18:23:25.217Z,17.38
2022-11-08T18:25:53.259Z,13.02
2022-11-08T18:28:19.922Z,15.40
2022-11-08T18:30:47.972Z,13.80
2022-11-08T18:33:16.257Z,14.38
2022-11-08T18:35:43.565Z,17.10
2022-11-08T18:38:11.793Z,17.63
2022-11-08T18:40:38.827Z,12.32
2022-11-08T18:43:06.897Z,15.32
2022-11-08T18:45:33.596Z,11.85
2022-11-08T18:48:00.316Z,16.77
2022-11-08T18:50:27.082Z,13.05
2022-11-08T18:52:53.727Z,14.48
2022-11-08T18:55:20.995Z,15.52
2022-11-08T18:57:47.841Z,12.77
2022-11-08T19:00:14.680Z,11.77
2022-11-08T19:02:41.343Z,12.80
2022-11-08T19:05:08.323Z,12.45
2022-11-08T19:07:35.022Z,14.48
2022-11-08T19:10:01.708Z,14.50
2022-11-08T19:12:29.812Z,18.30
2022-11-08T19:14:56.504Z,15.27
2022-11-08T19:17:23.250Z,14.13
2022-11-08T19:19:50.000Z,15.23
2022-11-08T19:22:16.765Z,12.80
2022-11-08T19:24:43.681Z,13.10
2022-11-08T19:27:10.365Z,13.55
2022-11-08T19:29:37.102Z,13.10
2022-11-08T19:32:03.935Z,14.32
2022-11-08T19:34:31.150Z,14.52
2022-11-08T19:36:57.842Z,13.77
2022-11-08T19:39:24.728Z,12.65
2022-11-08T19:41:51.475Z,15.68
2022-11-08T19:44:18.436Z,14.75
2022-11-08T19:46:45.200Z,18.15
2022-11-08T19:49:11.997Z,13.90
2022-11-08T19:51:39.083Z,14.02
2022-11-08T19:54:09.987Z,19.45
2022-11-08T19:57:04.294Z,18.27
2022-11-08T19:59:23.799Z,16.20
2022-11-08T20:01:50.672Z,16.75
2022-11-08T20:04:18.557Z,20.70
2022-11-08T20:06:46.365Z,24.55
2022-11-08T20:09:13.195Z,38.75
2022-11-08T20:11:41.864Z,47.85
2022-11-08T20:14:10.937Z,42.80
2022-11-08T20:16:41.474Z,54.63
2022-11-08T20:19:11.022Z,51.55
2022-11-08T20:21:40.675Z,56.45
2022-11-08T20:24:07.548Z,49.00
2022-11-08T20:26:34.846Z,42.08
2022-11-08T20:29:01.770Z,40.58
2022-11-08T20:31:28.572Z,44.15
2022-11-08T20:33:55.353Z,48.85
2022-11-08T20:36:24.337Z,44.75
2022-11-08T20:38:56.163Z,44.33
2022-11-08T20:41:23.545Z,50.03
2022-11-08T20:43:50.635Z,44.67
2022-11-08T20:46:19.743Z,50.53
2022-11-08T20:48:50.789Z,40.75
2022-11-08T20:51:19.441Z,46.33
2022-11-08T20:53:46.616Z,42.17
2022-11-08T20:56:18.604Z,34.72
2022-11-08T20:58:47.229Z,31.02
2022-11-08T21:01:20.109Z,30.60
2022-11-08T21:03:47.483Z,31.45
2022-11-08T21:06:17.728Z,29.92
2022-11-08T21:09:09.958Z,28.33
2022-11-08T21:11:37.556Z,21.45
2022-11-08T21:14:05.033Z,20.00
2022-11-08T21:16:46.820Z,22.30
2022-11-08T21:19:19.294Z,20.40
2022-11-08T21:21:48.771Z,18.60
2022-11-08T21:24:16.938Z,20.40
2022-11-08T21:26:43.656Z,19.73
2022-11-08T21:29:10.420Z,16.83
2022-11-08T21:31:37.100Z,17.58
2022-11-08T21:34:03.870Z,16.17
2022-11-08T21:36:30.630Z,19.35
2022-11-08T21:38:57.427Z,14.73
2022-11-08T21:41:24.335Z,14.23
2022-11-08T21:43:50.964Z,16.88
2022-11-08T21:46:26.567Z,16.85
2022-11-08T21:51:24.371Z,14.32
2022-11-08T21:53:56.281Z,18.20
2022-11-08T21:56:29.935Z,18.75
2022-11-08T21:58:57.220Z,19.10
2022-11-08T22:01:28.881Z,17.75
2022-11-08T22:03:56.721Z,22.52
2022-11-08T22:06:24.172Z,19.30
2022-11-08T22:08:50.919Z,16.08
2022-11-08T22:11:17.725Z,17.55
2022-11-08T22:13:44.783Z,14.75
2022-11-08T22:16:11.508Z,18.70
2022-11-08T22:21:42.834Z,20.67
2022-11-08T22:24:20.118Z,18.63
2022-11-08T22:26:48.216Z,16.35
2022-11-08T22:29:15.155Z,19.27
2022-11-08T22:31:42.586Z,18.20
2022-11-08T22:34:09.810Z,12.98
2022-11-08T22:36:42.955Z,14.57
2022-11-08T22:39:16.022Z,14.23
2022-11-08T22:41:44.051Z,16.65
2022-11-08T22:44:12.301Z,17.27
2022-11-08T22:46:39.998Z,14.27
2022-11-08T22:49:06.840Z,19.42
2022-11-08T22:51:33.495Z,21.98
2022-11-08T22:54:00.320Z,16.73
2022-11-08T22:56:27.208Z,20.77
2022-11-08T22:58:53.950Z,15.38
2022-11-08T23:01:20.925Z,14.88
2022-11-08T23:03:48.445Z,17.55
2022-11-08T23:06:15.807Z,17.98
2022-11-08T23:08:42.799Z,15.48
2022-11-08T23:11:28.569Z,16.92
2022-11-08T23:14:13.957Z,17.95
2022-11-08T23:16:42.768Z,19.75
2022-11-08T23:19:40.590Z,15.82
2022-11-08T23:22:31.025Z,16.52
2022-11-08T23:24:57.918Z,16.13
2022-11-08T23:27:44.534Z,15.35
2022-11-08T23:30:33.600Z,15.77
2022-11-08T23:33:00.271Z,20.48
2022-11-08T23:35:27.370Z,15.05
2022-11-08T23:37:55.142Z,15.52
2022-11-08T23:40:40.576Z,14.70
2022-11-08T23:43:28.891Z,17.98
2022-11-08T23:45:56.086Z,16.83
2022-11-08T23:48:22.966Z,20.48
2022-11-08T23:50:51.586Z,15.77
2022-11-08T23:53:24.978Z,16.05
2022-11-08T23:55:53.540Z,17.35
2022-11-08T23:58:20.412Z,16.55
